createdAt,value
2023-02-28T00:00:37.718Z,-0.36
2023-02-28T00:03:05.101Z,-0.38
2023-02-28T00:05:32.076Z,-0.35
2023-02-28T00:07:58.769Z,-0.32
2023-02-28T00:10:27.643Z,-0.30
2023-02-28T00:12:59.784Z,-0.30
2023-02-28T00:15:27.247Z,-0.32
2023-02-28T00:17:54.278Z,-0.33
2023-02-28T00:20:21.447Z,-0.37
2023-02-28T00:22:49.809Z,-0.41
2023-02-28T00:25:23.926Z,-0.43
2023-02-28T00:27:51.168Z,-0.44
2023-02-28T00:30:22.331Z,-0.49
2023-02-28T00:32:50.322Z,-0.54
2023-02-28T00:35:17.269Z,-0.56
2023-02-28T00:37:44.084Z,-0.58
2023-02-28T00:40:12.412Z,-0.59
2023-02-28T00:42:40.025Z,-0.54
2023-02-28T00:45:08.839Z,-0.50
2023-02-28T00:47:38.315Z,-0.45
2023-02-28T00:50:06.296Z,-0.41
2023-02-28T00:52:33.472Z,-0.41
2023-02-28T00:55:00.437Z,-0.37
2023-02-28T00:57:27.644Z,-0.38
2023-02-28T00:59:57.333Z,-0.42
2023-02-28T01:02:24.181Z,-0.51
2023-02-28T01:04:53.207Z,-0.60
2023-02-28T01:07:20.018Z,-0.65
2023-02-28T01:09:47.268Z,-0.68
2023-02-28T01:12:15.402Z,-0.71
2023-02-28T01:14:43.133Z,-0.71
2023-02-28T01:17:09.954Z,-0.70
2023-02-28T01:19:39.662Z,-0.63
2023-02-28T01:22:06.808Z,-0.50
2023-02-28T01:24:36.215Z,-0.41
2023-02-28T01:27:03.201Z,-0.45
2023-02-28T01:29:30.307Z,-0.52
2023-02-28T01:31:57.704Z,-0.54
2023-02-28T01:34:24.640Z,-0.59
2023-02-28T01:36:51.761Z,-0.61
2023-02-28T01:39:20.039Z,-0.63
2023-02-28T01:41:46.912Z,-0.64
2023-02-28T01:44:51.797Z,-0.66
2023-02-28T01:47:18.533Z,-0.66
2023-02-28T01:49:45.394Z,-0.67
2023-02-28T01:52:18.474Z,-0.69
2023-02-28T01:54:52.719Z,-0.64
2023-02-28T01:57:23.341Z,-0.60
2023-02-28T01:59:52.935Z,-0.59
2023-02-28T02:02:23.014Z,-0.60
2023-02-28T02:05:03.742Z,-0.61
2023-02-28T02:07:33.305Z,-0.61
2023-02-28T02:10:02.529Z,-0.62
2023-02-28T02:12:50.968Z,-0.63
2023-02-28T02:15:34.926Z,-0.65
2023-02-28T02:18:08.535Z,-0.66
2023-02-28T02:21:12.028Z,-0.66
2023-02-28T02:23:45.134Z,-0.68
2023-02-28T02:26:35.718Z,-0.70
2023-02-28T02:29:54.301Z,-0.69
2023-02-28T02:32:44.262Z,-0.64
2023-02-28T02:35:17.707Z,-0.59
2023-02-28T02:38:13.897Z,-0.57
2023-02-28T02:41:04.601Z,-0.57
2023-02-28T02:43:35.326Z,-0.55
2023-02-28T02:46:06.060Z,-0.53
2023-02-28T02:48:34.540Z,-0.51
2023-02-28T02:51:12.341Z,-0.49
2023-02-28T02:53:53.242Z,-0.49
2023-02-28T02:56:21.695Z,-0.51
2023-02-28T02:58:49.859Z,-0.50
2023-02-28T03:01:28.346Z,-0.48
2023-02-28T03:04:03.622Z,-0.52
2023-02-28T03:06:30.686Z,-0.51
2023-02-28T03:08:57.622Z,-0.44
2023-02-28T03:11:24.462Z,-0.35
2023-02-28T03:14:20.081Z,-0.30
2023-02-28T03:17:23.720Z,-0.28
2023-02-28T03:20:03.812Z,-0.28
2023-02-28T03:22:39.810Z,-0.29
2023-02-28T03:25:21.184Z,-0.30
2023-02-28T03:28:14.346Z,-0.33
2023-02-28T03:31:29.124Z,-0.38
2023-02-28T03:34:06.440Z,-0.44
2023-02-28T03:36:44.303Z,-0.48
2023-02-28T03:39:22.618Z,-0.52
2023-02-28T03:42:01.183Z,-0.58
2023-02-28T03:44:34.969Z,-0.61
2023-02-28T03:47:05.471Z,-0.59
2023-02-28T03:49:54.628Z,-0.58
2023-02-28T03:52:22.789Z,-0.59
2023-02-28T03:54:52.642Z,-0.62
2023-02-28T03:57:57.036Z,-0.61
2023-02-28T04:00:33.617Z,-0.54
2023-02-28T04:03:00.359Z,-0.44
2023-02-28T04:05:32.860Z,-0.41
2023-02-28T04:08:07.150Z,-0.38
2023-02-28T04:10:33.845Z,-0.35
2023-02-28T04:13:00.693Z,-0.35
2023-02-28T04:15:28.216Z,-0.35
2023-02-28T04:17:55.143Z,-0.36
2023-02-28T04:20:22.080Z,-0.36
2023-02-28T04:22:48.938Z,-0.38
2023-02-28T04:25:15.807Z,-0.38
2023-02-28T04:27:44.967Z,-0.35
2023-02-28T04:30:13.164Z,-0.34
2023-02-28T04:32:39.980Z,-0.33
2023-02-28T04:35:07.841Z,-0.33
2023-02-28T04:37:35.363Z,-0.35
2023-02-28T04:40:02.809Z,-0.38
2023-02-28T04:42:36.025Z,-0.41
2023-02-28T04:45:03.825Z,-0.45
2023-02-28T04:47:30.746Z,-0.48
2023-02-28T04:49:57.640Z,-0.51
2023-02-28T05:04:14.916Z,-0.23
2023-02-28T05:06:43.089Z,0.23
2023-02-28T05:09:11.848Z,0.13
2023-02-28T05:11:40.046Z,0.03
2023-02-28T05:14:12.217Z,-0.07
2023-02-28T05:16:39.170Z,-0.17
2023-02-28T05:19:06.390Z,-0.25
2023-02-28T05:21:34.911Z,-0.33
2023-02-28T05:24:03.609Z,-0.38
2023-02-28T05:26:30.869Z,-0.40
2023-02-28T05:28:58.088Z,-0.40
2023-02-28T05:31:25.505Z,-0.40
2023-02-28T05:33:52.490Z,-0.40
2023-02-28T05:36:21.080Z,-0.39
2023-02-28T05:38:48.905Z,-0.36
2023-02-28T05:41:20.532Z,-0.36
2023-02-28T05:43:48.332Z,-0.42
2023-02-28T05:46:15.531Z,-0.49
2023-02-28T05:48:42.793Z,-0.57
2023-02-28T05:51:09.841Z,-0.60
2023-02-28T05:53:36.596Z,-0.61
2023-02-28T05:56:04.174Z,-0.61
2023-02-28T05:58:35.158Z,-0.59
2023-02-28T06:01:20.536Z,-0.59
2023-02-28T06:03:47.804Z,-0.59
2023-02-28T06:06:14.539Z,-0.60
2023-02-28T06:08:43.934Z,-0.62
2023-02-28T06:11:14.062Z,-0.63
2023-02-28T06:13:41.279Z,-0.65
2023-02-28T06:16:09.794Z,-0.71
2023-02-28T06:18:37.860Z,-0.71
2023-02-28T06:21:04.896Z,-0.64
2023-02-28T06:23:32.750Z,-0.56
2023-02-28T06:25:59.620Z,-0.50
2023-02-28T06:28:27.281Z,-0.46
2023-02-28T06:30:54.938Z,-0.44
2023-02-28T06:33:21.791Z,-0.42
2023-02-28T06:35:52.042Z,-0.42
2023-02-28T06:38:19.060Z,-0.39
2023-02-28T06:40:55.744Z,-0.34
2023-02-28T06:43:23.532Z,-0.31
2023-02-28T06:45:50.527Z,-0.33
2023-02-28T06:48:21.998Z,-0.35
2023-02-28T06:50:49.682Z,-0.37
2023-02-28T06:53:17.014Z,-0.39
2023-02-28T06:55:43.960Z,-0.39
2023-02-28T06:58:19.200Z,-0.36
2023-02-28T07:00:46.456Z,-0.32
2023-02-28T07:03:15.857Z,-0.31
2023-02-28T07:05:43.002Z,-0.31
2023-02-28T07:08:12.285Z,-0.38
2023-02-28T07:10:39.145Z,-0.42
2023-02-28T07:13:06.300Z,-0.42
2023-02-28T07:15:35.533Z,-0.40
2023-02-28T07:18:03.777Z,-0.41
2023-02-28T07:20:30.823Z,-0.45
2023-02-28T07:22:57.495Z,-0.47
2023-02-28T07:25:27.336Z,-0.45
2023-02-28T07:27:55.645Z,-0.41
2023-02-28T07:30:22.413Z,-0.34
2023-02-28T07:32:50.358Z,-0.29
2023-02-28T07:35:17.519Z,-0.28
2023-02-28T07:37:44.355Z,-0.27
2023-02-28T07:40:12.076Z,-0.28
2023-02-28T07:42:42.929Z,-0.29
2023-02-28T07:45:12.022Z,-0.28
2023-02-28T07:47:39.418Z,-0.26
2023-02-28T07:50:08.059Z,-0.20
2023-02-28T07:52:34.950Z,-0.14
2023-02-28T07:55:01.990Z,-0.09
2023-02-28T07:57:29.042Z,-0.08
2023-02-28T07:59:56.492Z,-0.06
2023-02-28T08:02:23.548Z,-0.07
2023-02-28T08:04:51.736Z,-0.00
2023-02-28T08:07:38.374Z,0.04
2023-02-28T08:10:06.197Z,0.07
2023-02-28T08:12:33.138Z,0.09
2023-02-28T08:14:59.878Z,0.12
2023-02-28T08:17:26.928Z,0.12
2023-02-28T08:19:54.079Z,0.10
2023-02-28T08:22:21.532Z,0.08
2023-02-28T08:24:49.809Z,0.08
2023-02-28T08:27:17.879Z,0.12
2023-02-28T08:29:46.360Z,0.17
2023-02-28T08:32:27.491Z,0.22
2023-02-28T08:34:56.021Z,0.29
2023-02-28T08:37:23.077Z,0.37
2023-02-28T08:39:50.315Z,0.41
2023-02-28T08:42:17.545Z,0.44
2023-02-28T08:44:44.168Z,0.48
2023-02-28T08:47:11.182Z,0.55
2023-02-28T08:49:37.996Z,0.62
2023-02-28T08:52:05.159Z,0.68
2023-02-28T08:54:33.837Z,0.73
2023-02-28T08:57:00.777Z,0.72
2023-02-28T08:59:28.258Z,0.74
2023-02-28T09:01:55.794Z,0.72
2023-02-28T09:04:25.129Z,0.67
2023-02-28T09:06:52.450Z,0.64
2023-02-28T09:09:20.426Z,0.67
2023-02-28T09:11:47.471Z,0.76
2023-02-28T09:14:14.721Z,0.80
2023-02-28T09:16:42.089Z,0.88
2023-02-28T09:19:12.100Z,0.96
2023-02-28T09:21:39.656Z,0.99
2023-02-28T09:24:07.011Z,0.96
2023-02-28T09:26:39.116Z,0.91
2023-02-28T09:29:17.196Z,0.84
2023-02-28T09:31:44.186Z,0.83
2023-02-28T09:34:11.292Z,0.84
2023-02-28T09:36:45.136Z,0.84
2023-02-28T09:39:15.000Z,0.89
2023-02-28T09:41:50.880Z,0.97
2023-02-28T09:44:21.242Z,1.10
2023-02-28T09:46:50.791Z,1.22
2023-02-28T09:49:19.782Z,1.24
2023-02-28T09:51:51.850Z,1.22
2023-02-28T09:54:22.593Z,1.19
2023-02-28T09:57:07.766Z,1.17
2023-02-28T09:59:53.166Z,1.17
2023-02-28T10:02:32.273Z,1.24
2023-02-28T10:05:10.799Z,1.27
2023-02-28T10:07:59.549Z,1.20
2023-02-28T10:10:43.095Z,1.15
2023-02-28T10:13:18.004Z,1.20
2023-02-28T10:15:45.669Z,1.35
2023-02-28T10:18:15.904Z,1.46
2023-02-28T10:20:42.632Z,1.47
2023-02-28T10:23:20.958Z,1.46
2023-02-28T10:26:05.529Z,1.50
2023-02-28T10:28:32.879Z,1.56
2023-02-28T10:31:00.176Z,1.59
2023-02-28T10:33:34.625Z,1.63
2023-02-28T10:36:02.354Z,1.74
2023-02-28T10:38:36.618Z,1.81
2023-02-28T10:41:05.197Z,1.85
2023-02-28T10:43:32.555Z,1.89
2023-02-28T10:46:15.230Z,1.96
2023-02-28T10:48:48.405Z,2.06
2023-02-28T10:51:16.755Z,2.12
2023-02-28T10:53:59.501Z,2.13
2023-02-28T10:56:27.744Z,2.14
2023-02-28T10:59:03.085Z,2.18
2023-02-28T11:01:32.927Z,2.23
2023-02-28T11:04:00.202Z,2.20
2023-02-28T11:06:30.303Z,2.20
2023-02-28T11:09:03.230Z,2.24
2023-02-28T11:11:32.294Z,2.22
2023-02-28T11:14:05.232Z,2.20
2023-02-28T11:16:34.008Z,2.25
2023-02-28T11:19:07.302Z,2.29
2023-02-28T11:21:35.313Z,2.33
2023-02-28T11:24:24.858Z,2.32
2023-02-28T11:26:51.745Z,2.30
2023-02-28T11:29:22.794Z,2.35
2023-02-28T11:32:18.954Z,2.41
2023-02-28T11:34:46.539Z,2.45
2023-02-28T11:37:18.614Z,2.41
2023-02-28T11:39:45.942Z,2.42
2023-02-28T11:42:15.859Z,2.51
2023-02-28T11:44:51.798Z,2.56
2023-02-28T11:47:27.431Z,2.66
2023-02-28T11:50:16.055Z,2.77
2023-02-28T11:52:46.284Z,2.83
2023-02-28T11:55:26.834Z,2.80
2023-02-28T11:58:17.409Z,2.78
2023-02-28T12:01:07.751Z,2.84
2023-02-28T12:03:44.397Z,2.98
2023-02-28T12:06:30.169Z,3.09
2023-02-28T12:08:57.113Z,3.14
2023-02-28T12:12:00.826Z,3.18
2023-02-28T12:14:41.518Z,3.31
2023-02-28T12:17:41.413Z,3.44
2023-02-28T12:20:37.540Z,3.50
2023-02-28T12:23:19.791Z,3.49
2023-02-28T12:26:11.985Z,3.57
2023-02-28T12:28:51.009Z,3.71
2023-02-28T12:31:29.630Z,3.80
2023-02-28T12:34:04.465Z,3.78
2023-02-28T12:36:31.588Z,3.79
2023-02-28T12:39:04.393Z,3.81
2023-02-28T12:41:39.952Z,3.78
2023-02-28T12:44:22.754Z,3.85
2023-02-28T12:46:51.557Z,3.96
2023-02-28T12:49:25.044Z,4.05
2023-02-28T12:51:52.604Z,4.13
2023-02-28T12:54:44.886Z,4.20
2023-02-28T12:57:36.166Z,4.23
2023-02-28T13:00:12.756Z,4.30
2023-02-28T13:02:48.890Z,4.39
2023-02-28T13:05:18.702Z,4.80
2023-02-28T13:08:00.002Z,5.10
2023-02-28T13:10:39.012Z,5.33
2023-02-28T13:13:06.217Z,6.69
2023-02-28T13:15:38.533Z,8.06
2023-02-28T13:18:05.269Z,9.45
2023-02-28T13:20:36.623Z,10.58
2023-02-28T13:23:05.672Z,11.69
2023-02-28T13:25:42.294Z,12.77
2023-02-28T13:28:10.774Z,13.67
2023-02-28T13:30:53.125Z,14.21
2023-02-28T13:33:20.031Z,14.32
2023-02-28T13:35:46.920Z,14.31
2023-02-28T13:38:17.705Z,14.25
2023-02-28T13:40:44.761Z,14.71
2023-02-28T13:43:11.802Z,15.32
2023-02-28T13:45:40.181Z,15.79
2023-02-28T13:48:19.144Z,16.04
2023-02-28T13:50:46.012Z,16.47
2023-02-28T13:53:13.080Z,16.89
2023-02-28T13:56:04.865Z,16.90
2023-02-28T13:58:54.924Z,16.59
2023-02-28T14:01:57.897Z,16.46
2023-02-28T14:04:40.601Z,16.34
2023-02-28T14:07:09.838Z,16.45
2023-02-28T14:09:41.696Z,16.38
2023-02-28T14:12:46.519Z,16.07
2023-02-28T14:15:34.729Z,15.79
2023-02-28T14:18:11.743Z,15.83
2023-02-28T14:20:40.008Z,15.93
2023-02-28T14:23:48.908Z,15.80
2023-02-28T14:26:36.785Z,15.08
2023-02-28T14:29:41.822Z,15.11
2023-02-28T14:32:33.313Z,15.29
2023-02-28T14:35:06.229Z,15.35
2023-02-28T14:37:34.607Z,15.42
2023-02-28T14:40:01.766Z,15.13
2023-02-28T14:42:33.935Z,14.73
2023-02-28T14:45:01.387Z,14.29
2023-02-28T14:47:32.492Z,13.85
2023-02-28T14:50:04.159Z,13.54
2023-02-28T14:52:32.906Z,13.17
2023-02-28T14:55:01.459Z,12.42
2023-02-28T14:57:34.450Z,11.44
2023-02-28T15:00:10.911Z,10.30
2023-02-28T15:02:38.276Z,9.31
2023-02-28T15:05:17.564Z,8.55
2023-02-28T15:07:45.795Z,7.85
2023-02-28T15:10:23.982Z,7.35
2023-02-28T15:12:58.616Z,6.94
2023-02-28T15:15:36.083Z,6.50
2023-02-28T15:18:14.266Z,6.12
2023-02-28T15:20:41.784Z,5.92
2023-02-28T15:23:08.712Z,5.68
2023-02-28T15:25:41.400Z,5.41
2023-02-28T15:28:14.612Z,5.15
2023-02-28T15:30:59.947Z,4.87
2023-02-28T15:33:28.341Z,4.70
2023-02-28T15:36:17.788Z,4.53
2023-02-28T15:38:44.756Z,4.30
2023-02-28T15:41:22.859Z,4.10
2023-02-28T15:44:18.797Z,3.90
2023-02-28T15:46:55.879Z,3.69
2023-02-28T15:49:23.477Z,3.53
2023-02-28T15:51:51.236Z,3.42
2023-02-28T15:54:27.803Z,3.30
2023-02-28T15:56:57.520Z,3.18
2023-02-28T15:59:29.146Z,3.07
2023-02-28T16:02:04.901Z,2.95
2023-02-28T16:04:33.619Z,2.88
2023-02-28T16:07:01.854Z,2.83
2023-02-28T16:09:34.214Z,2.74
2023-02-28T16:12:02.411Z,2.63
2023-02-28T16:14:32.842Z,2.51
2023-02-28T16:17:05.620Z,2.39
2023-02-28T16:19:33.897Z,2.33
2023-02-28T16:22:06.112Z,2.27
2023-02-28T16:24:34.129Z,2.19
2023-02-28T16:27:00.957Z,2.12
2023-02-28T16:29:34.068Z,2.06
2023-02-28T16:32:01.174Z,2.03
2023-02-28T16:34:28.415Z,1.99
2023-02-28T16:36:55.212Z,1.96
2023-02-28T16:39:22.463Z,1.92
2023-02-28T16:41:49.713Z,1.89
2023-02-28T16:44:36.579Z,1.87
2023-02-28T16:47:04.186Z,1.83
2023-02-28T16:49:31.142Z,1.77
2023-02-28T16:51:58.705Z,1.73
2023-02-28T16:54:25.751Z,1.68
2023-02-28T16:56:52.476Z,1.65
2023-02-28T16:59:22.953Z,1.62
2023-02-28T17:01:52.131Z,1.60
2023-02-28T17:04:18.949Z,1.56
2023-02-28T17:06:48.215Z,1.50
2023-02-28T17:22:33.315Z,1.46
2023-02-28T17:25:00.255Z,1.67
2023-02-28T17:27:27.023Z,1.54
2023-02-28T17:29:53.844Z,1.41
2023-02-28T17:32:20.837Z,1.30
2023-02-28T17:34:47.692Z,1.20
2023-02-28T17:37:16.852Z,1.09
2023-02-28T17:39:44.496Z,0.99
2023-02-28T17:42:16.564Z,0.89
2023-02-28T17:44:43.610Z,0.82
2023-02-28T17:47:11.272Z,0.74
2023-02-28T17:49:38.317Z,0.66
2023-02-28T17:52:05.165Z,0.59
2023-02-28T17:54:36.411Z,0.53
2023-02-28T17:57:03.151Z,0.47
2023-02-28T17:59:33.780Z,0.41
2023-02-28T18:02:01.311Z,0.35
2023-02-28T18:04:28.205Z,0.31
2023-02-28T18:06:56.333Z,0.30
2023-02-28T18:09:23.207Z,0.29
2023-02-28T18:11:50.996Z,0.24
2023-02-28T18:14:18.936Z,0.16
2023-02-28T18:16:49.771Z,0.09
2023-02-28T18:19:17.681Z,0.04
2023-02-28T18:21:46.416Z,0.00
2023-02-28T18:24:16.138Z,-0.07
2023-02-28T18:26:44.020Z,-0.12
2023-02-28T18:29:21.704Z,-0.15
2023-02-28T18:31:48.749Z,-0.19
2023-02-28T18:34:15.711Z,-0.20
2023-02-28T18:36:46.537Z,-0.20
2023-02-28T18:39:14.248Z,-0.19
2023-02-28T18:41:41.653Z,-0.21
2023-02-28T18:44:19.001Z,-0.24
2023-02-28T18:46:50.496Z,-0.25
2023-02-28T18:49:18.278Z,-0.26
2023-02-28T18:51:46.020Z,-0.24
2023-02-28T18:54:13.375Z,-0.22
2023-02-28T18:56:40.280Z,-0.21
2023-02-28T18:59:07.029Z,-0.19
2023-02-28T19:01:33.991Z,-0.17
2023-02-28T19:04:01.384Z,-0.18
2023-02-28T19:06:29.008Z,-0.25
2023-02-28T19:08:59.453Z,-0.30
2023-02-28T19:11:26.502Z,-0.31
2023-02-28T19:13:54.096Z,-0.34
2023-02-28T19:16:22.297Z,-0.37
2023-02-28T19:18:49.299Z,-0.35
2023-02-28T19:21:18.824Z,-0.35
2023-02-28T19:23:46.141Z,-0.38
2023-02-28T19:26:20.130Z,-0.40
2023-02-28T19:28:47.028Z,-0.42
2023-02-28T19:31:15.454Z,-0.44
2023-02-28T19:33:43.252Z,-0.47
2023-02-28T19:36:13.061Z,-0.51
2023-02-28T19:38:41.341Z,-0.53
2023-02-28T19:41:10.019Z,-0.56
2023-02-28T19:43:37.077Z,-0.59
2023-02-28T19:46:08.883Z,-0.61
2023-02-28T19:48:36.203Z,-0.63
2023-02-28T19:51:08.646Z,-0.65
2023-02-28T19:53:36.335Z,-0.68
2023-02-28T19:56:03.992Z,-0.71
2023-02-28T19:58:31.437Z,-0.70
2023-02-28T20:01:00.659Z,-0.66
2023-02-28T20:03:27.636Z,-0.56
2023-02-28T20:06:00.676Z,-0.43
2023-02-28T20:08:28.438Z,-0.35
2023-02-28T20:10:55.283Z,-0.33
2023-02-28T20:13:28.033Z,-0.34
2023-02-28T20:15:55.517Z,-0.34
2023-02-28T20:18:22.356Z,-0.33
2023-02-28T20:20:49.718Z,-0.31
2023-02-28T20:23:18.096Z,-0.35
2023-02-28T20:25:44.896Z,-0.39
2023-02-28T20:28:11.582Z,-0.45
2023-02-28T20:30:39.062Z,-0.51
2023-02-28T20:33:06.341Z,-0.57
2023-02-28T20:35:36.546Z,-0.66
2023-02-28T20:38:03.465Z,-0.74
2023-02-28T20:40:31.431Z,-0.79
2023-02-28T20:43:02.983Z,-0.84
2023-02-28T20:45:34.022Z,-0.88
2023-02-28T20:48:00.970Z,-0.89
2023-02-28T20:50:27.817Z,-0.90
2023-02-28T20:52:55.502Z,-0.89
2023-02-28T20:55:22.526Z,-0.90
2023-02-28T20:57:50.253Z,-0.87
2023-02-28T21:00:19.947Z,-0.80
2023-02-28T21:02:47.484Z,-0.68
2023-02-28T21:05:14.435Z,-0.57
2023-02-28T21:07:41.479Z,-0.51
2023-02-28T21:10:10.090Z,-0.53
2023-02-28T21:12:36.981Z,-0.60
2023-02-28T21:15:04.030Z,-0.65
2023-02-28T21:17:32.513Z,-0.74
2023-02-28T21:19:59.225Z,-0.80
2023-02-28T21:22:28.484Z,-0.85
2023-02-28T21:24:55.704Z,-0.89
2023-02-28T21:27:22.961Z,-0.95
2023-02-28T21:29:50.011Z,-1.03
2023-02-28T21:32:17.182Z,-1.09
2023-02-28T21:34:50.245Z,-1.14
2023-02-28T21:37:17.144Z,-1.17
2023-02-28T21:39:44.653Z,-1.19
2023-02-28T21:42:12.452Z,-1.20
2023-02-28T21:44:39.628Z,-1.22
2023-02-28T21:47:06.511Z,-1.24
2023-02-28T21:49:34.272Z,-1.25
2023-02-28T21:52:01.258Z,-1.26
2023-02-28T21:54:28.384Z,-1.28
2023-02-28T21:56:55.413Z,-1.31
2023-02-28T21:59:23.281Z,-1.32
2023-02-28T22:01:51.099Z,-1.34
2023-02-28T22:04:20.700Z,-1.35
2023-02-28T22:06:52.108Z,-1.36
2023-02-28T22:09:18.947Z,-1.37
2023-02-28T22:11:45.900Z,-1.39
2023-02-28T22:14:14.172Z,-1.41
2023-02-28T22:16:54.462Z,-1.41
2023-02-28T22:19:22.613Z,-1.32
2023-02-28T22:21:49.750Z,-1.23
2023-02-28T22:24:19.953Z,-1.14
2023-02-28T22:26:48.528Z,-1.07
2023-02-28T22:29:15.399Z,-1.01
2023-02-28T22:31:42.134Z,-0.98
2023-02-28T22:34:12.448Z,-0.99
2023-02-28T22:36:40.951Z,-1.02
2023-02-28T22:39:08.055Z,-1.04
2023-02-28T22:41:34.836Z,-1.06
2023-02-28T22:44:04.482Z,-1.08
2023-02-28T22:46:32.754Z,-1.11
2023-02-28T22:49:01.209Z,-1.13
2023-02-28T22:51:28.247Z,-1.17
2023-02-28T22:53:55.524Z,-1.23
2023-02-28T22:56:26.143Z,-1.27
2023-02-28T22:58:54.917Z,-1.28
2023-02-28T23:01:22.930Z,-1.27
2023-02-28T23:03:50.269Z,-1.29
2023-02-28T23:06:24.462Z,-1.32
2023-02-28T23:08:53.059Z,-1.36
2023-02-28T23:11:36.321Z,-1.41
2023-02-28T23:14:04.066Z,-1.44
2023-02-28T23:16:39.774Z,-1.48
2023-02-28T23:19:17.698Z,-1.46
2023-02-28T23:21:44.873Z,-1.38
2023-02-28T23:24:12.586Z,-1.27
2023-02-28T23:26:43.242Z,-1.26
2023-02-28T23:29:11.417Z,-1.31
2023-02-28T23:31:39.676Z,-1.35
2023-02-28T23:34:07.624Z,-1.41
2023-02-28T23:36:34.604Z,-1.45
2023-02-28T23:39:01.451Z,-1.49
2023-02-28T23:41:28.598Z,-1.55
2023-02-28T23:43:55.645Z,-1.59
2023-02-28T23:46:22.412Z,-1.63
2023-02-28T23:48:49.761Z,-1.65
2023-02-28T23:51:18.631Z,-1.68
2023-02-28T23:53:47.168Z,-1.71
2023-02-28T23:56:16.316Z,-1.72
2023-02-28T23:58:47.688Z,-1.71
